Time;durP1;ratioP1;P1;durP2;ratioP2;P2;SDS_P1;SDS_P2;PMS_P1;PMS_P2;Temp;Humidity;BMP_temperature;BMP_pressure;BME280_temperature;BME280_humidity;BME280_pressure;Samples;Min_cycle;Max_cycle;Signal;HPM_P1;HPM_P2
2022/08/27 00:01:26;;;;;;;11.33;4.07;;;;;;;20.73;nan;99828.66;5069321;28;20107;-66
2022/08/27 00:03:53;;;;;;;10.90;3.90;;;;;;;20.66;nan;99873.78;5048215;28;20879;-67
2022/08/27 00:06:19;;;;;;;14.07;4.13;;;;;;;20.58;nan;99825.25;5064375;28;20035;-68
2022/08/27 00:08:46;;;;;;;13.57;3.63;;;;;;;20.58;nan;99837.84;5063739;28;20037;-67
2022/08/27 00:11:13;;;;;;;7.20;3.25;;;;;;;20.52;nan;99810.41;5067171;28;20088;-70
2022/08/27 00:13:38;;;;;;;10.70;3.60;;;;;;;;;;5065088;28;20064;-69
2022/08/27 00:16:09;;;;;;;12.25;4.40;;;;;;;20.46;nan;99829.56;5071032;28;20055;-69
2022/08/27 00:18:35;;;;;;;13.48;3.95;;;;;;;20.40;nan;99823.56;5048526;28;20550;-70
2022/08/27 00:21:01;;;;;;;11.82;3.30;;;;;;;20.38;nan;99802.47;5064978;28;20033;-69
2022/08/27 00:23:27;;;;;;;17.15;3.90;;;;;;;20.37;nan;99874.97;5062746;28;20016;-69
2022/08/27 00:25:53;;;;;;;10.25;3.95;;;;;;;20.25;nan;99839.94;5064828;28;20533;-69
2022/08/27 00:28:18;;;;;;;9.93;3.58;;;;;;;20.14;nan;99810.78;5063752;28;20143;-66
2022/08/27 00:30:44;;;;;;;10.10;3.47;;;;;;;20.10;nan;99841.88;5064953;28;20150;-68
2022/08/27 00:33:09;;;;;;;15.90;4.03;;;;;;;19.96;nan;99780.44;5062860;28;20382;-70
2022/08/27 00:35:36;;;;;;;8.82;3.83;;;;;;;19.94;nan;99876.19;5051732;28;20466;-69
2022/08/27 00:38:04;;;;;;;9.05;3.50;;;;;;;20.01;nan;99826.88;5063288;28;20032;-69
2022/08/27 00:40:32;;;;;;;14.52;3.67;;;;;;;20.05;nan;99847.34;5067617;28;20028;-69
2022/08/27 00:42:58;;;;;;;8.55;3.30;;;;;;;20.05;nan;99836.66;5068600;28;20035;-69
2022/08/27 00:45:24;;;;;;;19.30;4.68;;;;;;;20.05;nan;99785.88;5070891;28;20021;-69
2022/08/27 00:47:56;;;;;;;7.85;3.80;;;;;;;20.07;nan;99829.13;5066320;28;20024;-69
2022/08/27 00:50:38;;;;;;;8.73;3.58;;;;;;;20.00;nan;99871.50;5066748;28;20032;-69
2022/08/27 00:53:11;;;;;;;8.77;3.58;;;;;;;20.03;nan;99832.69;5063124;28;20059;-69
2022/08/27 00:55:41;;;;;;;10.02;3.35;;;;;;;20.00;nan;99831.44;5050915;28;20021;-69
2022/08/27 00:58:29;;;;;;;10.95;3.60;;;;;;;19.96;nan;99828.56;5061147;28;20070;-70
2022/08/27 01:00:55;;;;;;;10.00;3.45;;;;;;;19.96;nan;99841.91;5050431;28;20028;-70
2022/08/27 01:03:23;;;;;;;10.15;4.03;;;;;;;19.80;nan;99839.88;5069463;28;20104;-69
2022/08/27 01:05:49;;;;;;;11.50;4.10;;;;;;;19.83;nan;99841.97;5068304;28;20029;-67
2022/08/27 01:08:22;;;;;;;11.95;3.97;;;;;;;19.77;nan;99838.59;5062736;28;20108;-66
2022/08/27 01:10:48;;;;;;;13.32;4.07;;;;;;;19.66;nan;99851.34;5065488;28;20017;-68
2022/08/27 01:13:17;;;;;;;13.15;4.05;;;;;;;19.62;nan;99786.25;5072233;28;20536;-67
2022/08/27 01:15:43;;;;;;;11.23;4.10;;;;;;;19.53;nan;99868.94;5063326;28;20111;-69
2022/08/27 01:18:12;;;;;;;12.60;3.85;;;;;;;19.51;nan;99897.84;5054086;28;20024;-69
2022/08/27 01:20:48;;;;;;;12.35;4.15;;;;;;;19.42;nan;99765.31;5075931;28;20028;-69
2022/08/27 01:23:26;;;;;;;10.38;3.95;;;;;;;19.40;nan;99839.59;5083099;28;20020;-69
2022/08/27 01:25:52;;;;;;;11.33;3.80;;;;;;;19.32;nan;99857.91;5072502;28;20074;-69
2022/08/27 01:28:20;;;;;;;11.25;3.83;;;;;;;19.34;nan;99833.56;5073793;28;20028;-69
2022/08/27 01:30:45;;;;;;;11.75;3.85;;;;;;;19.25;nan;99836.16;5053551;28;20036;-68
2022/08/27 01:33:17;;;;;;;12.82;4.00;;;;;;;19.24;nan;99842.56;5067649;28;20382;-69
2022/08/27 01:35:44;;;;;;;12.05;4.20;;;;;;;19.25;nan;99843.34;5071909;28;20110;-69
2022/08/27 01:38:10;;;;;;;14.25;3.75;;;;;;;19.14;nan;99816.06;5072072;28;20056;-69
2022/08/27 01:40:36;;;;;;;12.20;3.50;;;;;;;19.19;nan;99852.53;5071936;28;20118;-70
2022/08/27 01:43:02;;;;;;;9.02;3.53;;;;;;;19.18;nan;99846.41;5072637;28;20021;-70
2022/08/27 01:45:34;;;;;;;8.05;3.20;;;;;;;19.16;nan;99848.59;5074494;28;20174;-68
2022/08/27 01:48:01;;;;;;;11.88;3.50;;;;;;;19.13;nan;99855.31;5067392;28;20025;-69
2022/08/27 01:50:31;;;;;;;9.57;3.97;;;;;;;19.12;nan;99839.59;5072691;28;20028;-69
2022/08/27 01:53:00;;;;;;;16.30;3.95;;;;;;;19.08;nan;99844.72;5070518;28;20040;-69
2022/08/27 01:55:26;;;;;;;7.15;3.97;;;;;;;18.97;nan;99838.00;5065440;28;20037;-69
2022/08/27 01:57:53;;;;;;;9.48;3.63;;;;;;;19.03;nan;99993.44;5062385;28;20028;-69
2022/08/27 02:00:22;;;;;;;13.25;4.28;;;;;;;19.00;nan;99836.59;5064732;28;20103;-70
2022/08/27 02:02:48;;;;;;;8.70;3.38;;;;;;;;;;5064880;28;20039;-70
2022/08/27 02:05:13;;;;;;;10.27;3.65;;;;;;;;;;5048833;28;20017;-67
2022/08/27 02:07:39;;;;;;;8.13;3.70;;;;;;;;;;5069918;28;20032;-68
2022/08/27 02:10:08;;;;;;;9.30;3.65;;;;;;;18.88;nan;99843.19;5063700;28;20040;-68
2022/08/27 02:12:33;;;;;;;9.73;3.65;;;;;;;18.90;nan;99786.91;5069434;28;20031;-68
2022/08/27 02:15:00;;;;;;;13.43;4.00;;;;;;;18.78;nan;99883.41;5067955;28;20037;-67
2022/08/27 02:17:25;;;;;;;12.77;3.92;;;;;;;18.85;nan;99822.47;5066423;28;20502;-67
2022/08/27 02:19:52;;;;;;;6.57;3.80;;;;;;;;;;5064726;28;20038;-68
2022/08/27 02:22:17;;;;;;;9.00;3.78;;;;;;;18.82;nan;99847.06;5062976;28;20075;-66
2022/08/27 02:24:43;;;;;;;13.90;3.70;;;;;;;18.88;nan;99922.44;5066781;28;20421;-68
2022/08/27 02:27:10;;;;;;;18.10;4.00;;;;;;;18.85;nan;99883.03;5061988;28;20451;-70
2022/08/27 02:29:35;;;;;;;10.73;3.97;;;;;;;18.94;nan;99856.44;5050475;28;20028;-67
2022/08/27 02:32:00;;;;;;;10.70;3.90;;;;;;;18.93;nan;99871.66;5066233;28;20510;-69
2022/08/27 02:34:27;;;;;;;15.27;3.90;;;;;;;18.92;nan;99819.41;5072184;28;20071;-69
2022/08/27 02:36:53;;;;;;;10.60;3.95;;;;;;;18.86;nan;99872.03;5066285;28;20779;-69
2022/08/27 02:39:18;;;;;;;12.82;3.42;;;;;;;;;;5068271;28;20103;-69
2022/08/27 02:41:44;;;;;;;10.52;3.83;;;;;;;;;;5065044;28;20077;-69
2022/08/27 02:44:10;;;;;;;11.00;3.73;;;;;;;18.76;nan;99874.06;5052115;28;20116;-69
2022/08/27 02:46:36;;;;;;;15.90;3.50;;;;;;;18.74;nan;99858.34;5068859;28;20032;-69
2022/08/27 02:49:02;;;;;;;10.95;3.60;;;;;;;18.64;nan;99907.31;5064703;28;20577;-69
2022/08/27 02:51:27;;;;;;;10.13;3.88;;;;;;;18.74;nan;99879.69;5064967;28;20165;-69
2022/08/27 02:53:53;;;;;;;16.30;4.03;;;;;;;18.69;nan;99879.78;5054085;28;20043;-68
2022/08/27 02:56:18;;;;;;;13.20;3.85;;;;;;;;;;5051880;28;20032;-68
2022/08/27 02:58:44;;;;;;;9.57;3.58;;;;;;;18.66;nan;99827.03;5065620;28;20435;-70
2022/08/27 03:01:09;;;;;;;9.85;3.80;;;;;;;;;;5051353;28;20025;-70
2022/08/27 03:03:34;;;;;;;9.23;3.63;;;;;;;18.64;nan;99848.66;5045897;28;20115;-70
2022/08/27 03:06:00;;;;;;;8.85;4.07;;;;;;;18.66;nan;99875.03;5065028;28;20056;-70
2022/08/27 03:08:26;;;;;;;8.13;3.40;;;;;;;18.65;nan;99852.09;5064010;28;20784;-70
2022/08/27 03:10:55;;;;;;;10.23;3.60;;;;;;;18.65;nan;99860.09;5068700;28;20119;-70
2022/08/27 03:13:22;;;;;;;8.52;3.70;;;;;;;18.64;nan;99863.88;5051915;28;20028;-68
2022/08/27 03:15:48;;;;;;;9.60;3.55;;;;;;;18.65;nan;99886.78;5069561;28;20553;-71
2022/08/27 03:18:16;;;;;;;15.25;3.80;;;;;;;18.62;nan;99882.03;5072392;28;20104;-68
2022/08/27 03:20:44;;;;;;;14.70;4.18;;;;;;;18.58;nan;99881.84;5067338;28;20430;-69
2022/08/27 03:23:10;;;;;;;14.85;3.92;;;;;;;18.53;nan;99876.56;5064345;28;20363;-69
2022/08/27 03:25:37;;;;;;;8.93;3.75;;;;;;;18.48;nan;99914.78;5071676;28;20020;-68
2022/08/27 03:28:02;;;;;;;9.75;3.95;;;;;;;18.40;nan;99862.09;5055365;28;20389;-69
2022/08/27 03:30:28;;;;;;;13.50;3.75;;;;;;;;;;5063459;28;20032;-68
2022/08/27 03:32:53;;;;;;;10.57;3.90;;;;;;;18.25;nan;99855.13;5049533;28;20047;-70
2022/08/27 03:35:19;;;;;;;13.43;4.03;;;;;;;18.25;nan;99854.34;5062521;28;20309;-69
2022/08/27 03:37:46;;;;;;;12.13;4.32;;;;;;;18.22;nan;99881.53;5068837;28;20031;-70
2022/08/27 03:40:12;;;;;;;10.32;4.10;;;;;;;18.17;nan;99863.78;5067763;28;20135;-69
2022/08/27 03:42:38;;;;;;;10.82;4.38;;;;;;;18.11;nan;99838.28;5054059;28;20040;-69
2022/08/27 03:45:06;;;;;;;11.65;4.13;;;;;;;17.99;nan;99872.56;5074004;28;20097;-69
2022/08/27 03:47:31;;;;;;;10.35;3.92;;;;;;;;;;5069668;28;20418;-69
2022/08/27 03:49:59;;;;;;;12.48;3.72;;;;;;;17.93;nan;99884.34;5070981;28;20028;-69
2022/08/27 03:52:25;;;;;;;8.40;4.05;;;;;;;17.92;nan;99877.44;5049941;28;20028;-69
2022/08/27 03:54:51;;;;;;;8.90;3.63;;;;;;;17.89;nan;99868.16;5065352;28;20107;-70
2022/08/27 03:57:16;;;;;;;9.23;3.83;;;;;;;17.87;nan;99877.50;5069486;28;20110;-69
2022/08/27 03:59:42;;;;;;;9.82;4.28;;;;;;;17.79;nan;99876.22;5055546;28;20032;-69
2022/08/27 04:02:07;;;;;;;7.32;4.78;;;;;;;;;;5061630;28;20447;-69
2022/08/27 04:04:32;;;;;;;15.00;4.40;;;;;;;;;;5072649;28;20031;-71
2022/08/27 04:06:58;;;;;;;11.23;3.63;;;;;;;17.67;nan;99886.50;5060479;28;20028;-70
2022/08/27 04:09:23;;;;;;;14.00;4.13;;;;;;;17.63;nan;99883.63;5054252;28;20479;-70
2022/08/27 04:11:49;;;;;;;11.10;4.05;;;;;;;17.63;nan;99879.06;5043037;28;20067;-69
2022/08/27 04:14:14;;;;;;;13.25;4.40;;;;;;;;;;5073105;28;20051;-69
2022/08/27 04:16:40;;;;;;;12.03;4.17;;;;;;;17.56;nan;99846.69;5066019;28;20032;-69
2022/08/27 04:19:06;;;;;;;21.45;4.65;;;;;;;17.50;nan;99932.19;5065927;28;20789;-69
2022/08/27 04:21:32;;;;;;;15.88;4.70;;;;;;;;;;5069328;28;20432;-70
2022/08/27 04:23:58;;;;;;;8.52;3.80;;;;;;;17.46;nan;99883.28;5060632;28;20020;-69
2022/08/27 04:26:24;;;;;;;16.33;4.78;;;;;;;;;;5076685;28;20032;-69
2022/08/27 04:28:49;;;;;;;7.33;4.30;;;;;;;;;;5063711;28;20085;-69
2022/08/27 04:31:17;;;;;;;12.13;3.87;;;;;;;17.48;nan;99899.75;5062344;28;20035;-69
2022/08/27 04:33:43;;;;;;;9.85;3.70;;;;;;;;;;5053710;28;20040;-70
2022/08/27 04:36:09;;;;;;;12.70;4.35;;;;;;;;;;5072036;28;20078;-70
2022/08/27 04:38:35;;;;;;;11.27;5.03;;;;;;;;;;5072875;28;20142;-70
2022/08/27 04:41:25;;;;;;;10.95;4.00;;;;;;;;;;5081022;28;20028;-70
2022/08/27 04:43:55;;;;;;;9.40;4.32;;;;;;;;;;5074192;28;20115;-70
2022/08/27 04:46:25;;;;;;;10.10;4.43;;;;;;;;;;5064992;28;20142;-71
2022/08/27 04:48:50;;;;;;;17.35;4.40;;;;;;;;;;5056394;28;20034;-70
2022/08/27 04:51:16;;;;;;;10.52;4.68;;;;;;;17.61;nan;99885.75;5063435;28;20036;-70
2022/08/27 04:53:42;;;;;;;13.88;4.10;;;;;;;17.74;nan;99892.25;5074210;28;20024;-70
2022/08/27 04:56:11;;;;;;;12.00;4.10;;;;;;;;;;5073328;28;20040;-70
2022/08/27 04:58:36;;;;;;;14.88;4.88;;;;;;;;;;5073324;28;20032;-70
2022/08/27 05:01:01;;;;;;;15.30;5.00;;;;;;;;;;5054148;28;20036;-71
2022/08/27 05:03:27;;;;;;;15.67;5.23;;;;;;;;;;5055586;28;20069;-70
2022/08/27 05:06:05;;;;;;;18.02;4.70;;;;;;;18.00;nan;99903.44;5074831;28;20054;-70
2022/08/27 05:08:31;;;;;;;19.20;4.78;;;;;;;17.98;nan;99863.78;5069079;28;20040;-69
2022/08/27 05:10:57;;;;;;;9.50;4.55;;;;;;;18.09;nan;99908.91;5053048;28;20035;-69
2022/08/27 05:13:23;;;;;;;11.65;4.13;;;;;;;18.13;nan;99861.97;5067989;28;20021;-67
2022/08/27 05:15:55;;;;;;;10.45;4.55;;;;;;;18.18;nan;99915.97;5066047;28;20031;-68
2022/08/27 05:18:21;;;;;;;11.25;4.55;;;;;;;18.20;nan;99921.03;5070581;28;20582;-67
2022/08/27 05:20:48;;;;;;;13.93;4.70;;;;;;;18.24;nan;99908.69;5055837;28;20111;-68
2022/08/27 05:23:16;;;;;;;10.90;4.88;;;;;;;18.22;nan;99918.84;5054907;28;20107;-68
2022/08/27 05:25:42;;;;;;;14.15;5.03;;;;;;;;;;5047670;28;20089;-69
2022/08/27 05:28:08;;;;;;;14.35;4.80;;;;;;;18.33;nan;99932.84;5070689;28;20032;-70
2022/08/27 05:30:35;;;;;;;35.92;17.38;;;;;;;;;;5045477;28;20032;-69
2022/08/27 05:33:00;;;;;;;17.67;8.30;;;;;;;18.48;nan;99905.97;5084900;28;20052;-69
2022/08/27 05:35:26;;;;;;;19.15;6.18;;;;;;;18.77;nan;99926.34;5066744;28;20102;-68
2022/08/27 05:37:51;;;;;;;15.00;4.85;;;;;;;;;;5074588;28;20029;-70
2022/08/27 05:40:16;;;;;;;11.93;4.63;;;;;;;18.97;nan;99909.25;5050991;28;20036;-67
2022/08/27 05:42:42;;;;;;;12.45;4.25;;;;;;;19.07;nan;99931.19;5053258;28;20021;-68
2022/08/27 05:45:08;;;;;;;10.48;4.03;;;;;;;;;;5066908;28;20027;-68
2022/08/27 05:47:34;;;;;;;11.30;4.20;;;;;;;19.19;nan;99936.06;5067332;28;20478;-67
2022/08/27 05:49:59;;;;;;;13.55;4.75;;;;;;;;;;5073849;28;20082;-68
2022/08/27 05:52:24;;;;;;;10.07;4.03;;;;;;;19.39;nan;99918.09;5049697;28;20029;-69
2022/08/27 05:54:50;;;;;;;15.20;3.83;;;;;;;19.48;nan;99927.81;5052536;28;20021;-70
2022/08/27 05:57:15;;;;;;;7.88;3.90;;;;;;;;;;5075230;28;20021;-69
2022/08/27 06:02:24;;;;;;;10.25;4.03;;;;;;;19.72;nan;99977.63;5069736;28;20094;-67
2022/08/27 06:04:49;;;;;;;13.32;3.85;;;;;;;19.80;nan;99936.88;5067635;28;20031;-68
2022/08/27 06:07:15;;;;;;;14.48;4.22;;;;;;;19.87;nan;99894.50;5046085;28;20025;-69
2022/08/27 06:09:41;;;;;;;8.50;4.00;;;;;;;19.96;nan;99938.13;5069646;28;20490;-70
2022/08/27 06:12:06;;;;;;;14.77;4.25;;;;;;;;;;5052814;28;20479;-70
2022/08/27 06:14:33;;;;;;;15.70;4.20;;;;;;;20.05;nan;99929.41;5065683;28;20041;-71
2022/08/27 06:16:59;;;;;;;14.55;4.60;;;;;;;20.17;nan;99930.47;5066229;28;20025;-70
2022/08/27 06:19:25;;;;;;;18.98;4.60;;;;;;;;;;5051398;28;20504;-69
2022/08/27 06:21:51;;;;;;;19.67;4.25;;;;;;;20.39;nan;99931.59;5064509;28;20027;-69
2022/08/27 06:24:16;;;;;;;19.13;5.30;;;;;;;20.50;nan;99916.91;5066859;28;20466;-70
2022/08/27 06:26:43;;;;;;;13.50;4.68;;;;;;;20.59;nan;99871.53;5050691;28;20036;-70
2022/08/27 06:29:10;;;;;;;12.70;5.30;;;;;;;20.72;nan;99939.47;5063990;28;20032;-69
2022/08/27 06:31:37;;;;;;;15.68;5.30;;;;;;;20.81;nan;99937.63;5067547;28;20060;-70
2022/08/27 06:34:05;;;;;;;13.77;5.93;;;;;;;20.88;nan;99940.69;5064011;28;20029;-70
2022/08/27 06:36:34;;;;;;;15.57;5.90;;;;;;;21.00;nan;99948.94;5049891;28;20056;-70
2022/08/27 06:38:59;;;;;;;19.23;6.32;;;;;;;21.11;nan;99946.00;5065086;28;20023;-70
2022/08/27 06:41:27;;;;;;;13.82;5.95;;;;;;;21.22;nan;99909.84;5051324;28;20012;-70
2022/08/27 06:43:54;;;;;;;20.85;6.55;;;;;;;21.37;nan;99949.59;5062221;28;20016;-70
2022/08/27 06:46:23;;;;;;;15.45;6.30;;;;;;;21.47;nan;99923.69;5064717;28;20081;-69
2022/08/27 06:48:53;;;;;;;17.95;6.65;;;;;;;21.48;nan;99871.66;5067177;28;20021;-69
2022/08/27 06:51:25;;;;;;;17.38;6.95;;;;;;;21.54;nan;99948.13;5062329;28;20024;-69
2022/08/27 06:53:52;;;;;;;14.00;6.97;;;;;;;21.61;nan;99945.81;5061167;28;20585;-68
2022/08/27 06:56:17;;;;;;;13.75;6.45;;;;;;;;;;5063689;28;20055;-68
2022/08/27 06:58:44;;;;;;;13.63;7.05;;;;;;;21.79;nan;99931.38;5066328;28;20109;-68
2022/08/27 07:01:18;;;;;;;14.82;6.43;;;;;;;21.85;nan;99902.50;5070313;28;20031;-69
2022/08/27 07:03:44;;;;;;;16.35;7.85;;;;;;;21.97;nan;99934.88;5061705;28;20032;-67
2022/08/27 07:06:12;;;;;;;17.13;8.27;;;;;;;22.02;nan;99867.69;5062888;28;20019;-67
2022/08/27 07:08:38;;;;;;;14.68;7.70;;;;;;;22.09;nan;99942.31;5068459;28;20028;-68
2022/08/27 07:11:04;;;;;;;11.65;7.85;;;;;;;22.09;nan;99928.91;5065820;28;20082;-68
2022/08/27 07:13:30;;;;;;;19.02;8.77;;;;;;;22.31;nan;99936.03;5064403;28;20040;-67
2022/08/27 07:15:56;;;;;;;22.17;8.88;;;;;;;22.33;nan;99968.72;5050274;28;20025;-68
2022/08/27 07:18:21;;;;;;;25.50;8.57;;;;;;;22.46;nan;99940.97;5053807;28;20031;-70
2022/08/27 07:20:47;;;;;;;25.40;8.38;;;;;;;22.58;nan;99928.78;5060307;28;20037;-69
2022/08/27 07:23:13;;;;;;;15.10;8.15;;;;;;;22.63;nan;99873.06;5065357;28;20020;-70
2022/08/27 07:25:42;;;;;;;16.83;8.75;;;;;;;22.68;nan;99949.94;5067451;28;20016;-67
2022/08/27 07:28:08;;;;;;;20.05;9.15;;;;;;;22.80;nan;99976.16;5065294;28;20561;-65
2022/08/27 07:30:33;;;;;;;21.58;9.48;;;;;;;22.89;nan;99945.50;5061247;28;20123;-68
2022/08/27 07:32:59;;;;;;;20.88;9.15;;;;;;;23.02;nan;99946.44;5048915;28;20059;-67
2022/08/27 07:35:24;;;;;;;22.88;9.90;;;;;;;23.04;nan;99963.03;5069042;28;20056;-68
2022/08/27 07:37:50;;;;;;;18.50;9.48;;;;;;;23.23;nan;99954.63;5062904;28;20474;-68
2022/08/27 07:40:16;;;;;;;18.90;10.02;;;;;;;23.33;nan;99903.22;5073478;28;20074;-68
2022/08/27 07:45:28;;;;;;;19.42;10.90;;;;;;;23.57;nan;100010.16;5068746;28;20047;-68
2022/08/27 07:47:54;;;;;;;22.95;11.20;;;;;;;23.66;nan;99964.44;5073084;28;20035;-68
2022/08/27 07:50:22;;;;;;;21.15;11.25;;;;;;;23.76;nan;99971.38;5068490;28;20032;-68
2022/08/27 07:52:51;;;;;;;18.43;10.87;;;;;;;23.87;nan;99972.59;5072681;28;20024;-69
2022/08/27 07:55:17;;;;;;;;;;;;;;;24.03;nan;99950.50;5072888;28;20119;-68
2022/08/27 07:57:44;;;;;;;19.27;9.65;;;;;;;24.13;nan;99940.13;5067442;28;20031;-69
2022/08/27 08:00:10;;;;;;;27.30;11.73;;;;;;;24.05;nan;99937.50;5071533;28;20028;-69
2022/08/27 08:02:36;;;;;;;25.98;10.45;;;;;;;24.30;nan;99970.72;5073798;28;20124;-68
2022/08/27 08:05:02;;;;;;;20.85;10.23;;;;;;;;;;5068029;28;20103;-68
2022/08/27 08:07:28;;;;;;;19.52;9.73;;;;;;;24.46;nan;99971.75;5056429;28;20028;-66
2022/08/27 08:09:53;;;;;;;21.33;11.05;;;;;;;24.57;nan;99961.38;5071808;28;20024;-67
2022/08/27 08:12:19;;;;;;;22.52;9.48;;;;;;;24.66;nan;99939.75;5055418;28;20082;-65
2022/08/27 08:14:45;;;;;;;23.27;10.07;;;;;;;24.74;nan;99996.22;5066171;28;20037;-69
2022/08/27 08:17:11;;;;;;;25.35;10.77;;;;;;;24.80;nan;99940.25;5073343;28;20062;-69
2022/08/27 08:19:37;;;;;;;21.13;10.05;;;;;;;24.88;nan;99966.34;5066288;28;20435;-69
2022/08/27 08:22:02;;;;;;;21.45;10.02;;;;;;;24.96;nan;99976.22;5065957;28;20386;-68
2022/08/27 08:24:27;;;;;;;23.55;10.07;;;;;;;25.02;nan;99960.63;5051828;28;20020;-68
2022/08/27 08:26:53;;;;;;;21.98;10.75;;;;;;;25.10;nan;99946.31;5052165;28;20024;-68
2022/08/27 08:29:19;;;;;;;20.38;9.20;;;;;;;25.17;nan;99968.13;5052949;28;20463;-66
2022/08/27 08:31:45;;;;;;;26.63;9.50;;;;;;;25.21;nan;100004.06;5059390;28;20028;-65
2022/08/27 08:34:11;;;;;;;19.08;9.40;;;;;;;25.37;nan;99954.91;5054720;28;20029;-66
2022/08/27 08:36:36;;;;;;;18.38;8.48;;;;;;;;;;5066657;28;20024;-66
2022/08/27 08:39:02;;;;;;;21.70;9.77;;;;;;;25.54;nan;99962.78;5056707;28;20039;-65
2022/08/27 08:41:51;;;;;;;21.30;9.27;;;;;;;25.63;nan;99976.16;5071651;28;20020;-68
2022/08/27 08:44:37;;;;;;;13.95;9.50;;;;;;;25.73;nan;99970.31;5065235;28;20096;-68
2022/08/27 08:47:49;;;;;;;20.42;9.20;;;;;;;25.84;nan;99949.88;5065977;28;20085;-68
2022/08/27 08:50:52;;;;;;;19.52;9.40;;;;;;;25.99;nan;99980.78;5028574;28;20056;-67
2022/08/27 08:53:51;;;;;;;17.77;8.98;;;;;;;26.12;nan;99988.88;4989943;28;20033;-66
2022/08/27 08:56:27;;;;;;;20.45;8.73;;;;;;;26.25;nan;99937.22;5008161;28;20029;-68
2022/08/27 08:59:27;;;;;;;18.02;9.70;;;;;;;26.42;nan;99946.19;5025302;28;20033;-68
2022/08/27 09:01:53;;;;;;;17.42;8.80;;;;;;;26.49;nan;99974.16;4999043;28;20049;-67
2022/08/27 09:04:25;;;;;;;25.48;9.40;;;;;;;26.59;nan;99962.13;5015690;28;20049;-67
2022/08/27 09:07:01;;;;;;;15.75;7.88;;;;;;;26.69;nan;99963.53;5029421;28;20111;-68
2022/08/27 09:09:29;;;;;;;22.83;8.80;;;;;;;26.79;nan;99965.75;5013499;28;20104;-69
2022/08/27 09:12:03;;;;;;;23.50;8.75;;;;;;;26.86;nan;99960.53;5030021;28;20037;-69
2022/08/27 09:14:45;;;;;;;18.30;8.93;;;;;;;26.95;nan;99977.38;5029549;28;20041;-69
2022/08/27 09:17:11;;;;;;;13.75;8.63;;;;;;;27.01;nan;99963.59;5012508;28;20029;-68
2022/08/27 09:19:37;;;;;;;20.50;8.60;;;;;;;27.10;nan;100024.47;5030089;28;20025;-68
2022/08/27 09:22:20;;;;;;;20.65;8.13;;;;;;;27.19;nan;99980.31;5043312;28;20037;-68
2022/08/27 09:24:54;;;;;;;19.77;7.43;;;;;;;27.27;nan;99972.06;5066489;28;20017;-67
2022/08/27 09:27:20;;;;;;;15.55;6.88;;;;;;;27.34;nan;99995.78;5068016;28;20032;-67
2022/08/27 09:29:52;;;;;;;20.38;8.05;;;;;;;27.47;nan;99939.69;5052025;28;20024;-68
2022/08/27 09:32:30;;;;;;;16.20;7.57;;;;;;;27.53;nan;100003.19;5067460;28;20024;-67
2022/08/27 09:34:59;;;;;;;18.83;7.90;;;;;;;27.61;nan;99961.69;5065989;28;20657;-68
2022/08/27 09:37:27;;;;;;;19.67;9.18;;;;;;;27.68;nan;99952.91;5068488;28;20036;-68
2022/08/27 09:40:06;;;;;;;26.45;7.63;;;;;;;27.76;nan;99941.91;5064264;28;20024;-68
2022/08/27 09:42:39;;;;;;;19.90;7.82;;;;;;;27.82;nan;99938.94;5063906;28;20146;-68
2022/08/27 09:45:12;;;;;;;21.50;7.75;;;;;;;27.81;nan;99943.56;5051045;28;20497;-68
2022/08/27 09:48:01;;;;;;;17.13;7.25;;;;;;;27.89;nan;99985.91;5070146;28;20490;-68
2022/08/27 09:50:35;;;;;;;20.90;7.47;;;;;;;28.03;nan;99923.19;5052591;28;20028;-67
2022/08/27 09:53:02;;;;;;;27.45;7.93;;;;;;;28.09;nan;99940.75;5064327;28;20047;-68
2022/08/27 09:55:29;;;;;;;19.25;6.70;;;;;;;28.25;nan;99972.38;5068854;28;20054;-67
2022/08/27 09:57:55;;;;;;;16.90;7.63;;;;;;;28.30;nan;99985.63;5068655;28;20508;-68
2022/08/27 10:00:32;;;;;;;15.68;8.13;;;;;;;28.29;nan;99935.34;5071462;28;20103;-68
2022/08/27 10:03:01;;;;;;;17.45;7.65;;;;;;;28.42;nan;99951.09;5069528;28;20108;-68
2022/08/27 10:05:36;;;;;;;16.85;7.25;;;;;;;28.47;nan;99960.91;5066095;28;20016;-68
2022/08/27 10:08:09;;;;;;;22.00;7.60;;;;;;;28.49;nan;99955.88;5063213;28;20055;-67
2022/08/27 10:10:46;;;;;;;26.73;7.95;;;;;;;28.59;nan;99958.03;5065150;28;20046;-67
2022/08/27 10:13:16;;;;;;;24.30;7.20;;;;;;;28.72;nan;99968.72;5063995;28;20043;-68
2022/08/27 10:16:09;;;;;;;29.33;8.07;;;;;;;28.74;nan;100001.66;5063008;28;20046;-67
2022/08/27 10:18:45;;;;;;;15.60;6.55;;;;;;;28.87;nan;99953.50;5061011;28;20032;-67
2022/08/27 10:21:13;;;;;;;16.13;6.72;;;;;;;28.90;nan;99953.59;5046202;28;20028;-68
2022/08/27 10:23:49;;;;;;;19.13;6.45;;;;;;;29.00;nan;99946.78;5066278;28;20151;-68
2022/08/27 10:26:27;;;;;;;15.85;5.88;;;;;;;29.08;nan;99928.75;5063712;28;20051;-69
2022/08/27 10:29:29;;;;;;;15.80;5.72;;;;;;;29.19;nan;99945.97;5050695;28;20657;-69
2022/08/27 10:32:42;;;;;;;23.08;6.28;;;;;;;29.25;nan;99882.16;5063335;28;20107;-69
2022/08/27 10:35:21;;;;;;;15.18;6.20;;;;;;;29.26;nan;99916.28;5026301;28;20040;-69
2022/08/27 10:37:46;;;;;;;;;;;;;;;29.29;nan;99941.88;5041567;28;20039;-69
2022/08/27 10:40:22;;;;;;;18.17;6.37;;;;;;;29.33;nan;99938.09;5062664;28;19920;-66
2022/08/27 10:43:12;;;;;;;18.63;7.30;;;;;;;29.40;nan;99951.75;5059544;28;20663;-67
2022/08/27 10:45:54;;;;;;;15.02;6.82;;;;;;;29.50;nan;99922.44;5052589;28;20391;-67
2022/08/27 10:48:29;;;;;;;16.17;6.95;;;;;;;29.55;nan;99954.69;5065837;28;20074;-67
2022/08/27 10:51:14;;;;;;;12.13;6.13;;;;;;;29.64;nan;99961.44;5065429;28;20029;-70
2022/08/27 10:54:03;;;;;;;20.02;7.07;;;;;;;29.69;nan;99960.38;5065624;28;20031;-68
2022/08/27 10:56:37;;;;;;;15.30;6.13;;;;;;;29.77;nan;99947.69;5063384;28;20024;-68
2022/08/27 10:59:08;;;;;;;12.40;5.50;;;;;;;29.84;nan;99918.69;5069419;28;20142;-67
2022/08/27 11:01:38;;;;;;;13.65;5.10;;;;;;;29.93;nan;99914.91;5066299;28;20478;-67
2022/08/27 11:04:34;;;;;;;18.45;5.82;;;;;;;30.03;nan;99942.22;5066309;28;20032;-67
2022/08/27 11:07:08;;;;;;;17.40;5.75;;;;;;;30.12;nan;99920.22;5066418;28;20036;-68
2022/08/27 11:09:57;;;;;;;15.65;5.90;;;;;;;30.16;nan;99928.41;5067983;28;20399;-67
2022/08/27 11:12:51;;;;;;;23.50;5.47;;;;;;;30.24;nan;99928.16;5053544;28;20032;-67
2022/08/27 11:15:40;;;;;;;16.85;4.97;;;;;;;30.30;nan;99918.53;5039863;28;20045;-67
2022/08/27 11:18:36;;;;;;;15.35;5.40;;;;;;;30.37;nan;99901.53;5050463;28;20082;-67
2022/08/27 11:21:25;;;;;;;17.88;5.90;;;;;;;30.46;nan;99921.06;5040785;28;20033;-68
2022/08/27 11:24:15;;;;;;;19.08;5.65;;;;;;;30.53;nan;99928.50;5043461;28;20147;-67
2022/08/27 11:26:42;;;;;;;13.50;5.75;;;;;;;30.58;nan;99884.69;5043721;28;20036;-68
2022/08/27 11:29:23;;;;;;;11.50;5.22;;;;;;;30.68;nan;99921.28;5043292;28;20151;-69
2022/08/27 11:32:02;;;;;;;11.82;4.40;;;;;;;30.80;nan;99906.63;5045711;28;20035;-68
2022/08/27 11:34:55;;;;;;;21.38;6.47;;;;;;;30.85;nan;99936.22;5048295;28;20025;-67
2022/08/27 11:38:02;;;;;;;13.52;5.30;;;;;;;31.00;nan;99916.16;5047720;28;20044;-68
2022/08/27 11:40:33;;;;;;;18.70;5.45;;;;;;;31.07;nan;99899.91;5049866;28;20384;-68
2022/08/27 11:43:15;;;;;;;17.20;4.53;;;;;;;31.05;nan;99877.75;5047680;28;20029;-67
2022/08/27 11:45:57;;;;;;;17.48;5.78;;;;;;;31.17;nan;99882.09;5046202;28;20491;-68
2022/08/27 11:48:26;;;;;;;17.20;5.07;;;;;;;31.17;nan;99952.81;5048634;28;20033;-67
2022/08/27 11:50:56;;;;;;;14.20;5.30;;;;;;;31.18;nan;99900.00;5044437;28;20079;-67
2022/08/27 11:53:27;;;;;;;14.00;4.93;;;;;;;31.31;nan;99898.53;5045855;28;20040;-67
2022/08/27 11:55:54;;;;;;;16.55;4.47;;;;;;;31.46;nan;99904.09;5044439;28;20061;-67
2022/08/27 11:58:20;;;;;;;15.00;4.40;;;;;;;31.50;nan;99900.25;5046752;28;20079;-67
2022/08/27 12:00:47;;;;;;;19.42;4.10;;;;;;;31.53;nan;99882.38;5051785;28;20027;-68
2022/08/27 12:03:19;;;;;;;15.73;4.07;;;;;;;31.58;nan;99892.91;5047501;28;20105;-68
2022/08/27 12:05:53;;;;;;;17.05;3.95;;;;;;;31.63;nan;99902.66;5045090;28;20112;-67
2022/08/27 12:08:21;;;;;;;8.27;3.88;;;;;;;31.68;nan;99910.47;5046369;28;20028;-67
2022/08/27 12:11:21;;;;;;;14.80;3.72;;;;;;;31.74;nan;99911.66;5046638;28;20021;-67
2022/08/27 12:13:54;;;;;;;12.50;3.80;;;;;;;31.79;nan;99894.97;5044141;28;20045;-67
2022/08/27 12:17:24;;;;;;;12.07;3.88;;;;;;;31.82;nan;99907.81;5047311;28;20032;-67
2022/08/27 12:20:15;;;;;;;17.67;4.50;;;;;;;31.86;nan;99883.34;4977756;28;20066;-67
2022/08/27 12:25:59;;;;;;;8.32;3.10;;;;;;;31.82;nan;99915.22;5005763;28;20044;-68